Flight Briefing for CPX323

Departure Arrival
Austin-Bergstrom International Airport (KAUS)
Click to view FAA NOTAMS
Miami International Airport (KMIA)
Click to view FAA NOTAMS
Departure Time Arrival Time
N/A N/A
Aircraft Distance
B767-300BDSF 990nm
Departure METAR Arrival METAR
KAUS 151953Z 20010KT 10SM FEW120 BKN200 BKN250 29/12 A2968 RMK AO2 SLP044 T02890122 $ KMIA 151953Z 14009KT 10SM SCT032 BKN250 26/19 A2993 RMK AO2 SLP136 T02560189
Suggested Route
ILEXY2 ZENZI IAH J86 LEV Q102 BAGGS SSCOT5


View recent IFR Routes data
Notes



Charts and Procedures

Charts for KAUS
No chart available
Charts for KMIA
No chart available

Ventusky Weather